Time;durP1;ratioP1;P1;durP2;ratioP2;P2;SDS_P1;SDS_P2;PMS_P1;PMS_P2;Temp;Humidity;BMP_temperature;BMP_pressure;BME280_temperature;BME280_humidity;BME280_pressure;Samples;Min_cycle;Max_cycle;Signal;HPM_P1;HPM_P2
2022/10/07 00:02:09;;;;;;;74.50;8.05;;;;;;;;;;6302189;22;20024;-76
2022/10/07 00:04:45;;;;;;;88.38;10.05;;;;;;;;;;6300395;22;20023;-75
2022/10/07 00:07:13;;;;;;;71.63;8.90;;;;;;;;;;6302364;22;20106;-76
2022/10/07 00:09:47;;;;;;;67.68;9.32;;;;;;;;;;6302068;22;20020;-76
2022/10/07 00:12:15;;;;;;;78.95;10.43;;;;;;;;;;6301591;22;20026;-76
2022/10/07 00:14:48;;;;;;;69.90;9.10;;;;;;;;;;6301690;22;20468;-76
2022/10/07 00:17:16;;;;;;;84.93;11.23;;;;;;;;;;6301301;22;20482;-76
2022/10/07 00:19:50;;;;;;;76.55;9.98;;;;;;;;;;6300051;22;20019;-76
2022/10/07 00:22:17;;;;;;;54.22;7.57;;;;;;;;;;6301412;22;20026;-76
2022/10/07 00:24:50;;;;;;;59.75;7.95;;;;;;;;;;6297978;22;20472;-76
2022/10/07 00:27:18;;;;;;;72.35;9.23;;;;;;;;;;6298810;22;20460;-76
2022/10/07 00:29:45;;;;;;;68.53;8.90;;;;;;;;;;6274128;22;20019;-76
2022/10/07 00:32:19;;;;;;;62.28;8.70;;;;;;;;;;6301496;22;20023;-75
2022/10/07 00:34:46;;;;;;;89.75;9.57;;;;;;;;;;6300576;22;20096;-76
2022/10/07 00:37:13;;;;;;;59.45;10.43;;;;;;;;;;6273225;22;20019;-76
2022/10/07 00:39:46;;;;;;;77.65;9.23;;;;;;;;;;6299225;22;20471;-75
2022/10/07 00:42:14;;;;;;;68.82;9.57;;;;;;;;;;6300154;22;20523;-76
2022/10/07 00:44:47;;;;;;;69.03;8.32;;;;;;;;;;6300451;22;20025;-76
2022/10/07 00:47:33;;;;;;;78.53;9.07;;;;;;;;;;6300647;22;20408;-76
2022/10/07 00:50:09;;;;;;;71.32;8.60;;;;;;;;;;6277681;22;20019;-76
2022/10/07 00:52:39;;;;;;;75.22;9.65;;;;;;;;;;6302858;22;20499;-76
2022/10/07 00:55:16;;;;;;;61.47;9.68;;;;;;;;;;6301704;22;20025;-75
2022/10/07 00:57:44;;;;;;;69.18;9.68;;;;;;;;;;6302635;22;20029;-75
2022/10/07 01:00:20;;;;;;;62.25;9.52;;;;;;;;;;6301828;22;20023;-76
2022/10/07 01:02:47;;;;;;;67.43;9.65;;;;;;;;;;6302773;22;20053;-74
2022/10/07 01:05:22;;;;;;;66.18;8.80;;;;;;;;;;6302081;22;20057;-75
2022/10/07 01:07:49;;;;;;;70.45;8.48;;;;;;;;;;6302968;22;20023;-76
2022/10/07 01:10:19;;;;;;;72.50;9.95;;;;;;;;;;6301908;22;20023;-75
2022/10/07 01:13:04;;;;;;;66.65;8.75;;;;;;;;;;6302688;22;20034;-76
2022/10/07 01:15:34;;;;;;;68.63;8.57;;;;;;;;;;6274535;22;20542;-75
2022/10/07 01:18:23;;;;;;;68.68;9.30;;;;;;;;;;6277497;22;20394;-76
2022/10/07 01:21:05;;;;;;;63.70;8.27;;;;;;;;;;6303684;22;20106;-75
2022/10/07 01:23:57;;;;;;;59.17;8.90;;;;;;;;;;6302848;22;20560;-76
2022/10/07 01:26:25;;;;;;;52.08;8.77;;;;;;;;;;6303009;22;20094;-76
2022/10/07 01:29:00;;;;;;;52.05;8.15;;;;;;;;;;6301790;22;20033;-76
2022/10/07 01:31:36;;;;;;;64.53;7.57;;;;;;;;;;6303171;22;20023;-76
2022/10/07 01:34:12;;;;;;;48.72;8.38;;;;;;;;;;6301832;22;20019;-77
2022/10/07 01:36:41;;;;;;;65.28;8.63;;;;;;;;;;6275196;22;20061;-76
2022/10/07 01:39:15;;;;;;;61.33;8.38;;;;;;;;;;6302489;22;20026;-75
2022/10/07 01:41:42;;;;;;;;;;;;;;;;;;6302764;22;20024;-76
2022/10/07 01:44:15;;;;;;;68.68;8.73;;;;;;;;;;6301940;22;19914;-76
2022/10/07 01:46:49;;;;;;;72.78;8.98;;;;;;;;;;6300395;22;20131;-75
2022/10/07 01:49:24;;;;;;;76.28;9.05;;;;;;;;;;6276458;22;20027;-76
2022/10/07 01:52:18;;;;;;;56.15;8.40;;;;;;;;;;6302550;22;20102;-75
2022/10/07 01:55:01;;;;;;;64.38;9.32;;;;;;;;;;6301711;22;20090;-75
2022/10/07 01:57:31;;;;;;;71.18;8.65;;;;;;;;;;6273666;22;20026;-76
2022/10/07 02:00:08;;;;;;;61.28;9.20;;;;;;;;;;6301553;22;20098;-76
2022/10/07 02:02:39;;;;;;;62.78;9.05;;;;;;;;;;6274369;22;20019;-76
2022/10/07 02:05:36;;;;;;;49.35;8.65;;;;;;;;;;6300440;22;20476;-75
2022/10/07 02:08:15;;;;;;;41.78;7.43;;;;;;;;;;6289770;22;20030;-75
2022/10/07 02:10:55;;;;;;;60.22;8.65;;;;;;;;;;6300982;22;20523;-76
2022/10/07 02:13:25;;;;;;;53.80;8.15;;;;;;;;;;6300362;22;20528;-75
2022/10/07 02:16:17;;;;;;;45.42;7.13;;;;;;;;;;6301885;22;20023;-75
2022/10/07 02:18:47;;;;;;;48.40;7.60;;;;;;;;;;6273182;22;20038;-75
2022/10/07 02:21:26;;;;;;;51.70;8.50;;;;;;;;;;6301622;22;20094;-75
2022/10/07 02:23:54;;;;;;;58.50;7.05;;;;;;;;;;6302943;22;20114;-75
2022/10/07 02:26:28;;;;;;;69.68;9.48;;;;;;;;;;6299656;22;20065;-76
2022/10/07 02:28:57;;;;;;;56.08;8.20;;;;;;;;;;6300879;22;20027;-75
2022/10/07 02:31:32;;;;;;;69.28;8.52;;;;;;;;;;6275904;22;20027;-76
2022/10/07 02:34:00;;;;;;;64.38;7.93;;;;;;;;;;6274839;22;20022;-75
2022/10/07 02:36:35;;;;;;;55.10;7.75;;;;;;;;;;6301393;22;20070;-76
2022/10/07 02:39:02;;;;;;;60.85;9.48;;;;;;;;;;6299042;22;20618;-76
2022/10/07 02:41:46;;;;;;;60.13;8.13;;;;;;;;;;6300189;22;20109;-75
2022/10/07 02:44:18;;;;;;;64.10;8.75;;;;;;;;;;6274221;22;20145;-75
2022/10/07 02:46:58;;;;;;;;;;;;;;;;;;6299606;22;20356;-76
2022/10/07 02:49:36;;;;;;;51.90;7.20;;;;;;;;;;6300777;22;19925;-75
2022/10/07 02:52:13;;;;;;;58.30;8.48;;;;;;;;;;6276085;22;20027;-76
2022/10/07 02:54:43;;;;;;;51.42;8.38;;;;;;;;;;6301146;22;20025;-75
2022/10/07 02:57:18;;;;;;;62.40;9.45;;;;;;;;;;6301743;22;20106;-75
2022/10/07 02:59:47;;;;;;;57.72;9.52;;;;;;;;;;6301568;22;20046;-76
2022/10/07 03:02:21;;;;;;;52.75;7.97;;;;;;;;;;6301464;22;20019;-76
2022/10/07 03:04:56;;;;;;;64.25;8.07;;;;;;;;;;6302441;22;20474;-76
2022/10/07 03:07:24;;;;;;;56.40;8.45;;;;;;;;;;6302080;22;20094;-75
2022/10/07 03:09:59;;;;;;;61.13;8.15;;;;;;;;;;6300629;22;20029;-75
2022/10/07 03:12:27;;;;;;;57.30;7.72;;;;;;;;;;6273842;22;20142;-75
2022/10/07 03:15:02;;;;;;;59.33;8.38;;;;;;;;;;6301616;22;20019;-75
2022/10/07 03:17:29;;;;;;;62.67;8.32;;;;;;;;;;6300757;22;20283;-75
2022/10/07 03:20:03;;;;;;;52.17;7.93;;;;;;;;;;6300597;22;20023;-76
2022/10/07 03:22:30;;;;;;;55.63;7.35;;;;;;;;;;6273888;22;20094;-75
2022/10/07 03:24:57;;;;;;;52.08;7.85;;;;;;;;;;6301399;22;20029;-75
2022/10/07 03:27:31;;;;;;;52.05;8.65;;;;;;;;;;6301034;22;20464;-75
2022/10/07 03:29:58;;;;;;;54.63;7.95;;;;;;;;;;6300978;22;20019;-75
2022/10/07 03:32:32;;;;;;;61.33;8.32;;;;;;;;;;6300485;22;20407;-75
2022/10/07 03:34:59;;;;;;;;;;;;;;;;;;6275196;22;20019;-75
2022/10/07 03:37:28;;;;;;;49.03;8.02;;;;;;;;;;6302182;22;19926;-75
2022/10/07 03:40:09;;;;;;;53.20;8.73;;;;;;;;;;6301223;22;20029;-75
2022/10/07 03:42:43;;;;;;;51.67;8.18;;;;;;;;;;6302025;22;20022;-76
2022/10/07 03:45:11;;;;;;;56.85;8.23;;;;;;;;;;6301338;22;20029;-75
2022/10/07 03:47:38;;;;;;;56.90;9.00;;;;;;;;;;6299811;22;20015;-75
2022/10/07 03:50:12;;;;;;;84.63;9.70;;;;;;;;;;6276756;22;20019;-75
2022/10/07 03:52:39;;;;;;;58.97;6.97;;;;;;;;;;6302226;22;20029;-75
2022/10/07 03:55:14;;;;;;;63.83;8.38;;;;;;;;;;6301618;22;20098;-75
2022/10/07 03:57:50;;;;;;;61.00;7.30;;;;;;;;;;6301980;22;20031;-75
2022/10/07 04:00:26;;;;;;;56.88;7.90;;;;;;;;;;6300279;22;20522;-75
2022/10/07 04:02:53;;;;;;;55.45;8.95;;;;;;;;;;6302182;22;20161;-76
2022/10/07 04:05:28;;;;;;;58.42;9.45;;;;;;;;;;6302324;22;20024;-76
2022/10/07 04:08:03;;;;;;;47.00;7.53;;;;;;;;;;6276101;22;20125;-76
2022/10/07 04:10:31;;;;;;;53.30;7.53;;;;;;;;;;6302445;22;20073;-76
2022/10/07 04:13:05;;;;;;;38.03;7.03;;;;;;;;;;6302158;22;20062;-77
2022/10/07 04:15:33;;;;;;;55.67;7.38;;;;;;;;;;6301746;22;20106;-76
2022/10/07 04:18:00;;;;;;;47.67;6.40;;;;;;;;;;6300959;22;20027;-76
2022/10/07 04:20:34;;;;;;;57.05;7.82;;;;;;;;;;6302812;22;20023;-76
2022/10/07 04:23:01;;;;;;;51.72;8.10;;;;;;;;;;6275603;22;20015;-76
2022/10/07 04:25:36;;;;;;;57.80;8.95;;;;;;;;;;6300937;22;20034;-76
2022/10/07 04:28:11;;;;;;;51.15;7.50;;;;;;;;;;6274839;22;20100;-75
2022/10/07 04:30:49;;;;;;;51.83;7.93;;;;;;;;;;6301635;22;20092;-76
2022/10/07 04:33:20;;;;;;;57.35;7.50;;;;;;;;;;6300440;22;20023;-75
2022/10/07 04:35:55;;;;;;;41.17;6.03;;;;;;;;;;6303186;22;20098;-76
2022/10/07 04:38:22;;;;;;;57.40;7.50;;;;;;;;;;6304219;22;20058;-76
2022/10/07 04:40:56;;;;;;;53.45;7.47;;;;;;;;;;6304595;22;20019;-76
2022/10/07 04:43:23;;;;;;;51.15;7.47;;;;;;;;;;6303394;22;20026;-75
2022/10/07 04:45:52;;;;;;;66.13;8.77;;;;;;;;;;6274527;22;20098;-75
2022/10/07 04:48:33;;;;;;;49.55;8.52;;;;;;;;;;6278330;22;20716;-75
2022/10/07 04:51:00;;;;;;;62.50;8.05;;;;;;;;;;6303718;22;20483;-75
2022/10/07 04:53:35;;;;;;;58.22;7.95;;;;;;;;;;6303501;22;20023;-75
2022/10/07 04:56:02;;;;;;;;;;;;;;;;;;6303599;22;20094;-75
2022/10/07 04:58:29;;;;;;;67.47;9.07;;;;;;;;;;6301607;22;19919;-75
2022/10/07 05:01:07;;;;;;;66.47;8.88;;;;;;;;;;6275803;22;20024;-76
2022/10/07 05:03:37;;;;;;;60.42;7.55;;;;;;;;;;6302868;22;20097;-75
2022/10/07 05:06:11;;;;;;;57.92;7.65;;;;;;;;;;6302414;22;20025;-76
2022/10/07 05:08:38;;;;;;;70.60;8.05;;;;;;;;;;6303029;22;20045;-75
2022/10/07 05:11:05;;;;;;;57.05;9.02;;;;;;;;;;6303281;22;20029;-75
2022/10/07 05:13:39;;;;;;;54.33;8.30;;;;;;;;;;6303525;22;20043;-75
2022/10/07 05:16:08;;;;;;;61.25;8.95;;;;;;;;;;6275447;22;20101;-75
2022/10/07 05:18:42;;;;;;;68.10;8.75;;;;;;;;;;6302967;22;20746;-75
2022/10/07 05:21:10;;;;;;;48.33;7.32;;;;;;;;;;6302402;22;20034;-76
2022/10/07 05:23:37;;;;;;;59.45;7.40;;;;;;;;;;6302399;22;20030;-75
2022/10/07 05:26:13;;;;;;;62.75;7.90;;;;;;;;;;6302992;22;20019;-76
2022/10/07 05:28:41;;;;;;;51.17;7.50;;;;;;;;;;6302374;22;20090;-76
2022/10/07 05:31:16;;;;;;;64.45;8.60;;;;;;;;;;6302377;22;20023;-76
2022/10/07 05:33:44;;;;;;;50.58;7.03;;;;;;;;;;6303091;22;20019;-76
2022/10/07 05:36:12;;;;;;;40.85;6.78;;;;;;;;;;6302918;22;20058;-75
2022/10/07 05:38:46;;;;;;;50.40;7.72;;;;;;;;;;6302760;22;20098;-76
2022/10/07 05:41:13;;;;;;;;;;;;;;;;;;6303758;22;20094;-75
2022/10/07 05:43:42;;;;;;;65.70;9.95;;;;;;;;;;6302831;22;19944;-76
2022/10/07 05:46:24;;;;;;;44.47;7.28;;;;;;;;;;6300552;22;20363;-76
2022/10/07 05:48:58;;;;;;;59.00;7.32;;;;;;;;;;6275013;22;20461;-76
2022/10/07 05:51:32;;;;;;;35.20;7.07;;;;;;;;;;6276700;22;20102;-76
2022/10/07 05:53:59;;;;;;;57.13;8.48;;;;;;;;;;6302918;22;20086;-76
2022/10/07 05:56:33;;;;;;;55.00;7.85;;;;;;;;;;6301823;22;20023;-75
2022/10/07 05:59:00;;;;;;;38.35;6.40;;;;;;;;;;6302695;22;20019;-76
2022/10/07 06:01:35;;;;;;;44.20;7.32;;;;;;;;;;6302209;22;20025;-76
2022/10/07 06:04:02;;;;;;;46.10;6.95;;;;;;;;;;6302100;22;20019;-75
2022/10/07 06:06:30;;;;;;;37.17;7.55;;;;;;;;;;6274849;22;20500;-75
2022/10/07 06:14:42;;;;;;;56.13;7.40;;;;;;;;;;6302326;22;20065;-76
2022/10/07 06:17:09;;;;;;;48.97;6.63;;;;;;;;;;6249964;22;20073;-75
2022/10/07 06:19:43;;;;;;;57.42;8.15;;;;;;;;;;6276790;22;20024;-76
2022/10/07 06:22:13;;;;;;;56.33;7.05;;;;;;;;;;6302773;22;20076;-75
2022/10/07 06:24:40;;;;;;;55.42;8.70;;;;;;;;;;6302810;22;20480;-75
2022/10/07 06:27:14;;;;;;;39.80;6.93;;;;;;;;;;6302316;22;20011;-76
2022/10/07 06:29:41;;;;;;;45.65;7.90;;;;;;;;;;6302177;22;20019;-75
2022/10/07 06:32:15;;;;;;;40.05;5.82;;;;;;;;;;6303674;22;20023;-76
2022/10/07 06:34:43;;;;;;;55.08;8.20;;;;;;;;;;6302219;22;20825;-76
2022/10/07 06:37:11;;;;;;;33.28;6.00;;;;;;;;;;6302358;22;20023;-75
2022/10/07 06:39:45;;;;;;;43.58;6.68;;;;;;;;;;6302942;22;20019;-75
2022/10/07 06:42:12;;;;;;;43.33;6.70;;;;;;;;;;6276391;22;20118;-76
2022/10/07 06:44:46;;;;;;;36.20;5.95;;;;;;;;;;6276807;22;20094;-75
2022/10/07 06:47:20;;;;;;;51.22;8.10;;;;;;;;;;6300720;22;20019;-76
2022/10/07 06:49:54;;;;;;;39.38;6.28;;;;;;;;;;6303074;22;20094;-75
2022/10/07 06:52:21;;;;;;;49.53;6.88;;;;;;;;;;6274934;22;20076;-76
2022/10/07 06:54:48;;;;;;;44.83;6.50;;;;;;;;;;6302137;22;20023;-75
2022/10/07 06:57:22;;;;;;;48.05;7.72;;;;;;;;;;6302402;22;20355;-75
2022/10/07 07:00:09;;;;;;;50.08;7.97;;;;;;;;;;6302529;22;20023;-76
2022/10/07 07:02:43;;;;;;;52.97;7.20;;;;;;;;;;6303406;22;20865;-77
2022/10/07 07:05:10;;;;;;;;;;;;;;;;;;6301812;22;20022;-76
2022/10/07 07:07:37;;;;;;;50.38;6.80;;;;;;;;;;6302858;22;19954;-76
2022/10/07 07:10:13;;;;;;;44.20;7.70;;;;;;;;;;6302565;22;20027;-76
2022/10/07 07:12:40;;;;;;;38.47;5.80;;;;;;;;;;6301159;22;20033;-76
2022/10/07 07:15:15;;;;;;;41.80;6.35;;;;;;;;;;6301282;22;20031;-77
2022/10/07 07:17:43;;;;;;;37.85;6.40;;;;;;;;;;6274827;22;20407;-76
2022/10/07 07:20:17;;;;;;;40.85;6.78;;;;;;;;;;6301349;22;20025;-76
2022/10/07 07:22:48;;;;;;;53.90;6.57;;;;;;;;;;6274835;22;20098;-76
2022/10/07 07:25:15;;;;;;;35.50;6.45;;;;;;;;;;6302038;22;20019;-76
2022/10/07 07:27:49;;;;;;;33.80;5.50;;;;;;;;;;6301064;22;20023;-77
2022/10/07 07:30:23;;;;;;;34.22;6.35;;;;;;;;;;6301414;22;20057;-76
2022/10/07 07:32:58;;;;;;;42.00;6.47;;;;;;;;;;6300841;22;20102;-76
2022/10/07 07:35:27;;;;;;;44.17;6.10;;;;;;;;;;6300985;22;20054;-76
2022/10/07 07:37:54;;;;;;;37.95;6.55;;;;;;;;;;6302811;22;20126;-76
2022/10/07 07:40:28;;;;;;;38.03;7.07;;;;;;;;;;6302010;22;20023;-76
2022/10/07 07:42:55;;;;;;;46.53;6.85;;;;;;;;;;6301066;22;20026;-76
2022/10/07 07:45:31;;;;;;;36.72;6.35;;;;;;;;;;6302303;22;20073;-76
2022/10/07 07:48:05;;;;;;;50.47;6.35;;;;;;;;;;6269668;22;20051;-76
2022/10/07 07:50:39;;;;;;;45.92;6.78;;;;;;;;;;6269177;22;20090;-76
2022/10/07 07:53:07;;;;;;;35.80;6.03;;;;;;;;;;6271210;22;20043;-76
2022/10/07 07:55:51;;;;;;;46.17;6.20;;;;;;;;;;6273172;22;20095;-76
2022/10/07 07:58:20;;;;;;;38.83;5.97;;;;;;;;;;6273167;22;20020;-76
2022/10/07 08:03:42;;;;;;;38.15;6.32;;;;;;;;;;6229546;22;20302;-47
2022/10/07 08:06:19;;;;;;;39.60;6.17;;;;;;;;;;6239510;23;20368;-47
2022/10/07 08:08:47;;;;;;;37.05;6.03;;;;;;;;;;6238722;23;20091;-45
2022/10/07 08:11:15;;;;;;;42.05;6.93;;;;;;;;;;6239200;23;20028;-47
2022/10/07 08:13:50;;;;;;;43.72;6.18;;;;;;;;;;6238796;23;20435;-48
2022/10/07 08:16:17;;;;;;;;;;;;;;;;;;6214916;23;20047;-46
2022/10/07 08:18:51;;;;;;;34.63;6.15;;;;;;;;;;6239525;23;19915;-46
2022/10/07 08:21:20;;;;;;;45.05;6.72;;;;;;;;;;6239339;23;20388;-64
2022/10/07 08:23:47;;;;;;;34.10;5.13;;;;;;;;;;6239057;23;20663;-64
2022/10/07 08:26:21;;;;;;;34.08;5.35;;;;;;;;;;6235925;23;20026;-65
2022/10/07 08:28:48;;;;;;;;;;;;;;;;;;6236729;23;20098;-65
2022/10/07 08:31:17;;;;;;;43.10;6.80;;;;;;;;;;6239630;23;19986;-64
2022/10/07 08:33:52;;;;;;;35.60;5.50;;;;;;;;;;6239951;23;20557;-64
2022/10/07 08:36:20;;;;;;;39.97;6.90;;;;;;;;;;6239659;23;20123;-61
2022/10/07 08:38:55;;;;;;;39.35;6.22;;;;;;;;;;6239995;23;20035;-59
2022/10/07 08:41:27;;;;;;;36.83;6.32;;;;;;;;;;6239524;23;20094;-64
2022/10/07 08:43:54;;;;;;;32.58;5.15;;;;;;;;;;6240662;23;20064;-64
2022/10/07 08:46:31;;;;;;;29.90;6.22;;;;;;;;;;6240863;23;20039;-64
2022/10/07 08:49:02;;;;;;;39.55;6.53;;;;;;;;;;6237124;23;20028;-64
2022/10/07 08:51:41;;;;;;;36.67;5.67;;;;;;;;;;6238429;23;20026;-64
2022/10/07 08:54:12;;;;;;;38.88;6.63;;;;;;;;;;6239724;23;20243;-64
2022/10/07 08:56:47;;;;;;;43.78;6.15;;;;;;;;;;6239111;23;20103;-60
2022/10/07 08:59:17;;;;;;;39.13;6.18;;;;;;;;;;6240956;23;20111;-63
2022/10/07 09:01:48;;;;;;;35.78;6.47;;;;;;;;;;6250186;22;20030;-61
2022/10/07 09:04:41;;;;;;;49.47;6.80;;;;;;;;;;6208420;23;20025;-63
2022/10/07 09:07:18;;;;;;;45.22;6.28;;;;;;;;;;6238645;23;20020;-62
2022/10/07 09:09:55;;;;;;;34.58;4.97;;;;;;;;;;6239645;23;20034;-63
2022/10/07 09:12:26;;;;;;;38.17;6.78;;;;;;;;;;6239953;23;20052;-63
2022/10/07 09:15:02;;;;;;;28.10;4.60;;;;;;;;;;6240287;23;20020;-67
2022/10/07 09:17:32;;;;;;;41.97;5.45;;;;;;;;;;6240192;23;20049;-48
2022/10/07 09:20:12;;;;;;;33.00;5.32;;;;;;;;;;6240825;23;20020;-49
2022/10/07 09:22:41;;;;;;;28.50;6.25;;;;;;;;;;6239086;22;20498;-48
2022/10/07 09:25:18;;;;;;;38.38;5.35;;;;;;;;;;6240795;23;20059;-48
2022/10/07 09:27:46;;;;;;;29.90;5.25;;;;;;;;;;6240055;23;20024;-47
2022/10/07 09:30:21;;;;;;;34.40;5.88;;;;;;;;;;6240361;23;20026;-49
2022/10/07 09:32:50;;;;;;;27.58;4.35;;;;;;;;;;6238595;22;20020;-66
2022/10/07 09:35:26;;;;;;;34.05;5.47;;;;;;;;;;6239668;23;20026;-60
2022/10/07 09:37:56;;;;;;;32.78;5.50;;;;;;;;;;6239913;22;20030;-67
2022/10/07 09:40:31;;;;;;;36.97;5.13;;;;;;;;;;6237719;23;20026;-67
2022/10/07 09:42:59;;;;;;;34.00;5.53;;;;;;;;;;6240146;23;20024;-67
2022/10/07 09:45:30;;;;;;;33.28;5.18;;;;;;;;;;6240334;22;20022;-66
2022/10/07 09:48:16;;;;;;;41.78;6.32;;;;;;;;;;6239897;23;20511;-68
2022/10/07 09:50:44;;;;;;;40.08;5.82;;;;;;;;;;6239864;23;20107;-67
2022/10/07 09:53:23;;;;;;;28.38;5.82;;;;;;;;;;6240134;23;20060;-67
2022/10/07 09:55:51;;;;;;;30.92;5.22;;;;;;;;;;6239891;23;20107;-51
2022/10/07 09:58:25;;;;;;;30.38;5.43;;;;;;;;;;6239693;23;20031;-49
2022/10/07 10:00:54;;;;;;;29.08;5.03;;;;;;;;;;6240255;23;20524;-50
2022/10/07 10:03:38;;;;;;;29.75;4.65;;;;;;;;;;6278038;22;20057;-47
2022/10/07 10:06:07;;;;;;;38.13;5.45;;;;;;;;;;6301947;22;20023;-49
2022/10/07 10:08:44;;;;;;;34.20;6.20;;;;;;;;;;6300535;22;20015;-50
2022/10/07 10:11:17;;;;;;;26.98;5.40;;;;;;;;;;6301779;22;20095;-51
2022/10/07 10:13:51;;;;;;;36.10;5.65;;;;;;;;;;6299329;22;20094;-49
2022/10/07 10:16:25;;;;;;;32.47;5.47;;;;;;;;;;6301535;22;20141;-63
2022/10/07 10:19:02;;;;;;;30.67;5.30;;;;;;;;;;6300165;22;20102;-63
2022/10/07 10:21:34;;;;;;;28.92;5.60;;;;;;;;;;6301614;22;20087;-64
2022/10/07 10:24:11;;;;;;;30.63;5.43;;;;;;;;;;6301082;22;20016;-63
2022/10/07 10:26:44;;;;;;;35.80;5.53;;;;;;;;;;6300269;22;20023;-63
2022/10/07 10:29:21;;;;;;;34.67;5.57;;;;;;;;;;6301737;22;20097;-63
2022/10/07 10:31:54;;;;;;;35.30;5.75;;;;;;;;;;6300017;22;20098;-59
2022/10/07 10:34:46;;;;;;;32.67;5.40;;;;;;;;;;6300451;22;20106;-49
2022/10/07 10:37:21;;;;;;;31.05;5.40;;;;;;;;;;6301043;22;20122;-46
2022/10/07 10:40:13;;;;;;;41.22;6.15;;;;;;;;;;6300120;22;20114;-47
2022/10/07 10:42:56;;;;;;;36.15;6.05;;;;;;;;;;6299495;22;20482;-51
2022/10/07 10:45:48;;;;;;;43.70;6.35;;;;;;;;;;6300769;22;20029;-48
2022/10/07 10:48:28;;;;;;;27.63;5.03;;;;;;;;;;6299736;22;20065;-47
2022/10/07 10:51:24;;;;;;;42.83;6.13;;;;;;;;;;6300678;22;20034;-59
2022/10/07 10:53:57;;;;;;;36.45;5.82;;;;;;;;;;6298857;22;20557;-62
2022/10/07 10:56:32;;;;;;;27.20;5.38;;;;;;;;;;6300978;22;20062;-62
2022/10/07 10:59:02;;;;;;;31.25;5.60;;;;;;;;;;6299980;22;20023;-62
2022/10/07 11:01:35;;;;;;;28.05;4.90;;;;;;;;;;6300809;22;20022;-62
2022/10/07 11:04:15;;;;;;;35.58;5.38;;;;;;;;;;6298000;22;20050;-62
2022/10/07 11:06:45;;;;;;;27.42;5.57;;;;;;;;;;6298307;22;20019;-63
2022/10/07 11:09:38;;;;;;;29.70;5.25;;;;;;;;;;6301051;22;20091;-59
2022/10/07 11:12:09;;;;;;;29.63;4.40;;;;;;;;;;6299912;22;20027;-61
2022/10/07 11:14:48;;;;;;;31.15;4.75;;;;;;;;;;6300304;22;20509;-61
2022/10/07 11:17:22;;;;;;;29.35;4.80;;;;;;;;;;6299312;22;20030;-61
2022/10/07 11:20:03;;;;;;;35.65;5.45;;;;;;;;;;6274283;22;20761;-61
2022/10/07 11:22:34;;;;;;;25.10;5.28;;;;;;;;;;6300465;22;20520;-60
2022/10/07 11:25:24;;;;;;;18.45;4.32;;;;;;;;;;6300032;22;20016;-61
2022/10/07 11:27:54;;;;;;;27.08;4.20;;;;;;;;;;6299292;22;20062;-57
2022/10/07 11:30:34;;;;;;;26.30;4.55;;;;;;;;;;6299958;22;20039;-60
2022/10/07 11:33:10;;;;;;;28.75;4.68;;;;;;;;;;6298785;22;20015;-61
2022/10/07 11:35:50;;;;;;;30.63;4.72;;;;;;;;;;6300229;22;20030;-61
2022/10/07 11:38:19;;;;;;;28.50;4.68;;;;;;;;;;6300576;22;20399;-61
2022/10/07 11:40:59;;;;;;;27.00;4.75;;;;;;;;;;6299844;22;20041;-61
2022/10/07 11:43:28;;;;;;;24.17;4.18;;;;;;;;;;6299157;22;20019;-60
2022/10/07 11:46:22;;;;;;;25.50;5.00;;;;;;;;;;6300155;22;20019;-64
2022/10/07 11:48:52;;;;;;;27.55;4.75;;;;;;;;;;6299720;22;20019;-62
2022/10/07 11:51:34;;;;;;;25.17;5.88;;;;;;;;;;6299378;22;20529;-62
2022/10/07 11:54:02;;;;;;;28.67;4.82;;;;;;;;;;6298873;22;20023;-64
2022/10/07 11:56:43;;;;;;;35.28;5.55;;;;;;;;;;6299718;22;20098;-65
2022/10/07 11:59:26;;;;;;;30.15;5.13;;;;;;;;;;6299415;22;20538;-64
2022/10/07 12:02:01;;;;;;;28.95;4.90;;;;;;;;;;6299254;22;20464;-65
2022/10/07 12:04:37;;;;;;;28.23;5.07;;;;;;;;;;6298042;22;20053;-64
2022/10/07 12:07:29;;;;;;;31.15;4.55;;;;;;;;;;6299901;22;20070;-66
2022/10/07 12:10:04;;;;;;;33.45;5.30;;;;;;;;;;6299693;22;20094;-62
2022/10/07 12:12:43;;;;;;;27.98;4.95;;;;;;;;;;6299671;22;20023;-62
2022/10/07 12:15:29;;;;;;;27.45;4.82;;;;;;;;;;6300890;22;20066;-62
2022/10/07 12:18:05;;;;;;;22.10;4.95;;;;;;;;;;6298501;22;20472;-62
2022/10/07 12:20:45;;;;;;;27.33;4.90;;;;;;;;;;6298751;22;20019;-63
2022/10/07 12:23:21;;;;;;;24.88;4.90;;;;;;;;;;6300889;22;20023;-63
2022/10/07 12:25:57;;;;;;;29.67;5.47;;;;;;;;;;6299952;22;20020;-47
2022/10/07 12:28:46;;;;;;;15.45;3.78;;;;;;;;;;6300813;22;20026;-67
2022/10/07 12:31:23;;;;;;;27.42;4.75;;;;;;;;;;6300078;22;20030;-67
2022/10/07 12:34:08;;;;;;;25.13;4.72;;;;;;;;;;6298696;22;20020;-67
2022/10/07 12:36:42;;;;;;;32.83;5.97;;;;;;;;;;6300189;22;20090;-68
2022/10/07 12:39:10;;;;;;;26.05;5.45;;;;;;;;;;6272005;22;20023;-67
2022/10/07 12:41:45;;;;;;;27.67;4.90;;;;;;;;;;6300834;22;20015;-67
2022/10/07 12:44:32;;;;;;;30.98;5.35;;;;;;;;;;6302256;22;20026;-54
2022/10/07 12:47:18;;;;;;;29.13;4.88;;;;;;;;;;6300622;22;20027;-62
2022/10/07 12:49:48;;;;;;;28.42;4.45;;;;;;;;;;6301414;22;20027;-63
2022/10/07 12:52:23;;;;;;;28.13;4.18;;;;;;;;;;6300787;22;20019;-63
2022/10/07 12:55:06;;;;;;;23.95;4.15;;;;;;;;;;6300504;22;20478;-63
2022/10/07 12:57:42;;;;;;;21.95;4.68;;;;;;;;;;6301774;22;20102;-64
2022/10/07 13:00:23;;;;;;;21.27;3.75;;;;;;;;;;6303147;22;20019;-63
2022/10/07 13:03:13;;;;;;;26.23;4.47;;;;;;;;;;6300585;22;20057;-53
2022/10/07 13:05:51;;;;;;;27.98;5.10;;;;;;;;;;6302320;22;20015;-59
2022/10/07 13:08:31;;;;;;;30.80;5.20;;;;;;;;;;6276436;22;20049;-58
2022/10/07 13:11:16;;;;;;;25.35;4.18;;;;;;;;;;6301255;22;20019;-59
2022/10/07 13:14:23;;;;;;;31.35;4.80;;;;;;;;;;6299889;22;20029;-59
2022/10/07 13:17:14;;;;;;;28.25;4.75;;;;;;;;;;6248872;22;20490;-58
2022/10/07 13:20:08;;;;;;;36.00;5.30;;;;;;;;;;6301773;22;20023;-58
2022/10/07 13:22:35;;;;;;;29.92;4.93;;;;;;;;;;6299926;22;20090;-55
2022/10/07 13:25:11;;;;;;;30.45;5.75;;;;;;;;;;6302167;22;20116;-67
2022/10/07 13:27:40;;;;;;;30.52;4.82;;;;;;;;;;6300339;22;20019;-69
2022/10/07 13:30:43;;;;;;;27.65;4.25;;;;;;;;;;6301018;22;20054;-68
2022/10/07 13:33:16;;;;;;;32.75;5.40;;;;;;;;;;6281231;22;20094;-68
2022/10/07 13:35:50;;;;;;;24.13;5.45;;;;;;;;;;6301206;22;20432;-68
2022/10/07 13:38:17;;;;;;;;;;;;;;;;;;6301251;22;20029;-69
2022/10/07 13:40:52;;;;;;;20.88;4.13;;;;;;;;;;6301655;22;19993;-65
2022/10/07 13:43:28;;;;;;;28.55;5.63;;;;;;;;;;6299611;22;20023;-61
2022/10/07 13:45:56;;;;;;;26.45;6.03;;;;;;;;;;6300964;22;20027;-61
2022/10/07 13:48:34;;;;;;;23.40;4.28;;;;;;;;;;6300275;22;20058;-62
2022/10/07 13:51:02;;;;;;;19.63;4.45;;;;;;;;;;6301467;22;20023;-61
2022/10/07 13:53:37;;;;;;;20.33;4.88;;;;;;;;;;6299608;22;20053;-61
2022/10/07 13:56:22;;;;;;;21.90;5.07;;;;;;;;;;6301231;22;20480;-61
2022/10/07 13:58:56;;;;;;;21.35;4.03;;;;;;;;;;6300496;22;20029;-61
2022/10/07 14:01:26;;;;;;;26.23;4.60;;;;;;;;;;6301173;22;20033;-69
2022/10/07 14:04:16;;;;;;;30.70;4.40;;;;;;;;;;6299657;22;20523;-53
2022/10/07 14:06:43;;;;;;;24.55;5.43;;;;;;;;;;6300442;22;20019;-55
2022/10/07 14:09:36;;;;;;;21.95;4.43;;;;;;;;;;6299658;22;20051;-50
2022/10/07 14:12:06;;;;;;;28.00;4.97;;;;;;;;;;6299286;22;20098;-52
2022/10/07 14:14:41;;;;;;;17.25;4.43;;;;;;;;;;6299569;22;20029;-50
2022/10/07 14:17:26;;;;;;;25.00;5.07;;;;;;;;;;6296315;22;20551;-49
2022/10/07 14:20:19;;;;;;;19.00;4.30;;;;;;;;;;6300284;22;20019;-69
2022/10/07 14:22:52;;;;;;;18.90;4.05;;;;;;;;;;6299616;22;20019;-61
2022/10/07 14:25:27;;;;;;;18.55;4.07;;;;;;;;;;6300215;22;20024;-61
2022/10/07 14:28:04;;;;;;;24.70;5.05;;;;;;;;;;6299835;22;20023;-60
2022/10/07 14:36:37;;;;;;;26.42;4.97;;;;;;;;;;6300333;22;20094;-63
2022/10/07 14:39:23;;;;;;;27.65;5.22;;;;;;;;;;6300687;22;20098;-65
2022/10/07 14:41:57;;;;;;;40.08;5.82;;;;;;;;;;6299790;22;20022;-65
2022/10/07 14:44:24;;;;;;;41.90;6.63;;;;;;;;;;6294723;22;20471;-63
2022/10/07 14:47:02;;;;;;;38.58;6.40;;;;;;;;;;6297151;22;20029;-62
2022/10/07 14:49:36;;;;;;;41.55;7.32;;;;;;;;;;6297441;22;20030;-62
2022/10/07 14:52:10;;;;;;;39.88;6.13;;;;;;;;;;6298005;22;20098;-62
2022/10/07 14:54:44;;;;;;;36.47;6.60;;;;;;;;;;6296375;22;20031;-63
2022/10/07 14:57:11;;;;;;;39.72;6.30;;;;;;;;;;6298313;22;20026;-49
2022/10/07 14:59:38;;;;;;;40.05;6.70;;;;;;;;;;6296255;22;20334;-61
2022/10/07 15:02:12;;;;;;;45.65;7.18;;;;;;;;;;6296914;22;20023;-58
2022/10/07 15:04:46;;;;;;;39.63;6.43;;;;;;;;;;6294680;22;20106;-58
2022/10/07 15:07:20;;;;;;;38.58;6.57;;;;;;;;;;6296271;22;20023;-58
2022/10/07 15:09:47;;;;;;;35.97;6.55;;;;;;;;;;6297926;22;20755;-58
2022/10/07 15:12:15;;;;;;;41.88;7.13;;;;;;;;;;6298090;22;20129;-58
2022/10/07 15:14:49;;;;;;;38.65;6.03;;;;;;;;;;6296572;22;20122;-58
2022/10/07 15:17:16;;;;;;;43.78;7.25;;;;;;;;;;6297369;22;20019;-62
2022/10/07 15:19:43;;;;;;;36.03;6.50;;;;;;;;;;6296742;22;20097;-58
2022/10/07 15:22:17;;;;;;;34.45;6.53;;;;;;;;;;6296258;22;20029;-58
2022/10/07 15:24:44;;;;;;;;;;;;;;;;;;6297711;22;20098;-58
2022/10/07 15:27:18;;;;;;;36.80;6.65;;;;;;;;;;6271767;22;19997;-58
2022/10/07 15:29:45;;;;;;;33.47;5.43;;;;;;;;;;6295767;22;20293;-58